Time;durP1;ratioP1;P1;durP2;ratioP2;P2;SDS_P1;SDS_P2;PMS_P1;PMS_P2;Temp;Humidity;BMP_temperature;BMP_pressure;BME280_temperature;BME280_humidity;BME280_pressure;Samples;Min_cycle;Max_cycle;Signal;HPM_P1;HPM_P2
2020/12/13 00:02:23;;;;;;;;;;;2.80;99.90;;;;;;5095299;28;19977;-72
2020/12/13 00:04:49;;;;;;;;;;;2.70;99.90;;;;;;5095468;28;19924;-71
2020/12/13 00:07:16;;;;;;;;;;;2.80;99.90;;;;;;5095359;28;20340;-71
2020/12/13 00:09:42;;;;;;;;;;;2.80;99.90;;;;;;5095487;28;20483;-71
2020/12/13 00:12:08;;;;;;;;;;;2.80;99.90;;;;;;5098815;28;20060;-71
2020/12/13 00:14:35;;;;;;;;;;;2.80;99.90;;;;;;5115676;28;19923;-72
2020/12/13 00:17:01;;;;;;;;;;;2.80;99.90;;;;;;5115466;28;19923;-72
2020/12/13 00:19:27;;;;;;;;;;;2.80;99.90;;;;;;5115468;28;19947;-72
2020/12/13 00:21:55;;;;;;;;;;;2.80;99.90;;;;;;5115438;28;20330;-71
2020/12/13 00:24:21;;;;;;;;;;;2.80;99.90;;;;;;5102316;28;19978;-72
2020/12/13 00:26:47;;;;;;;;;;;2.80;99.90;;;;;;5096178;28;19924;-72
2020/12/13 00:29:13;;;;;;;;;;;2.80;99.90;;;;;;5095083;28;19928;-72
2020/12/13 00:31:40;;;;;;;;;;;2.80;99.90;;;;;;5094810;28;19982;-72
2020/12/13 00:34:06;;;;;;;;;;;2.80;99.90;;;;;;5095061;28;19924;-72
2020/12/13 00:36:32;;;;;;;;;;;2.80;99.90;;;;;;5095048;28;19924;-72
2020/12/13 00:38:58;;;;;;;;;;;2.80;99.90;;;;;;5095004;28;19932;-72
2020/12/13 00:41:25;;;;;;;;;;;2.70;99.90;;;;;;5099989;28;19931;-72
2020/12/13 00:43:51;;;;;;;;;;;2.80;99.90;;;;;;5114910;28;19928;-72
2020/12/13 00:46:17;;;;;;;;;;;2.80;99.90;;;;;;5114912;28;19972;-72
2020/12/13 00:48:45;;;;;;;;;;;2.80;99.90;;;;;;5114703;28;21322;-72
2020/12/13 00:51:11;;;;;;;;;;;2.80;99.90;;;;;;5115043;28;19924;-72
2020/12/13 00:53:37;;;;;;;;;;;2.80;99.90;;;;;;5114764;28;19931;-72
2020/12/13 00:56:03;;;;;;;;;;;2.80;99.90;;;;;;5100489;28;20365;-72
2020/12/13 00:58:29;;;;;;;;;;;2.80;99.90;;;;;;5094008;28;19931;-72
2020/12/13 01:00:55;;;;;;;;;;;2.80;99.90;;;;;;5094484;28;20376;-72
2020/12/13 01:03:21;;;;;;;;;;;2.80;99.90;;;;;;5095501;28;20011;-72
2020/12/13 01:05:48;;;;;;;;;;;2.80;99.90;;;;;;5094416;28;19930;-72
2020/12/13 01:08:14;;;;;;;;;;;2.80;99.90;;;;;;5094520;28;19962;-72
2020/12/13 01:10:40;;;;;;;;;;;2.80;99.90;;;;;;5094310;28;19924;-72
2020/12/13 01:13:06;;;;;;;;;;;2.80;99.90;;;;;;5093696;28;19951;-72
2020/12/13 01:15:32;;;;;;;;;;;2.80;99.90;;;;;;5093944;28;19924;-72
2020/12/13 01:17:57;;;;;;;;;;;2.80;99.90;;;;;;5093797;28;20385;-73
2020/12/13 01:20:23;;;;;;;;;;;2.80;99.90;;;;;;5093713;28;19931;-73
2020/12/13 01:22:50;;;;;;;;;;;2.80;99.90;;;;;;5093492;28;20582;-73
2020/12/13 01:25:16;;;;;;;;;;;2.80;99.90;;;;;;5093913;28;19928;-72
2020/12/13 01:27:42;;;;;;;;;;;2.80;99.90;;;;;;5095625;28;19924;-72
2020/12/13 01:30:09;;;;;;;;;;;2.80;99.90;;;;;;5113992;28;20416;-72
2020/12/13 01:32:36;;;;;;;;;;;2.80;99.90;;;;;;5114113;28;20289;-72
2020/12/13 01:35:02;;;;;;;;;;;2.80;99.90;;;;;;5114270;28;19953;-71
2020/12/13 01:37:28;;;;;;;;;;;2.90;99.90;;;;;;5114104;28;19980;-72
2020/12/13 01:39:55;;;;;;;;;;;2.80;99.90;;;;;;5113872;28;19924;-72
2020/12/13 01:42:21;;;;;;;;;;;2.80;99.90;;;;;;5113377;28;20000;-72
2020/12/13 01:44:47;;;;;;;;;;;2.80;99.90;;;;;;5113850;28;19930;-72
2020/12/13 01:47:13;;;;;;;;;;;2.80;99.90;;;;;;5114033;28;19924;-72
2020/12/13 01:49:41;;;;;;;;;;;2.80;99.90;;;;;;5114048;28;19928;-72
2020/12/13 01:55:01;;;;;;;;;;;2.80;99.90;;;;;;5107165;28;19920;-71
2020/12/13 01:57:30;;;;;;;;;;;2.80;99.90;;;;;;5093105;28;19970;-72
2020/12/13 01:59:58;;;;;;;;;;;2.80;99.90;;;;;;5093324;28;19958;-72
2020/12/13 02:05:28;;;;;;;;;;;2.80;99.90;;;;;;5092891;28;19920;-72
2020/12/13 02:07:55;;;;;;;;;;;2.80;99.90;;;;;;5093150;28;19971;-71
2020/12/13 02:10:22;;;;;;;;;;;2.80;99.90;;;;;;5092330;28;19971;-72
2020/12/13 02:12:48;;;;;;;;;;;2.80;99.90;;;;;;5092666;28;19971;-71
2020/12/13 02:15:14;;;;;;;;;;;2.80;99.90;;;;;;5092598;28;19970;-72
2020/12/13 02:17:41;;;;;;;;;;;2.80;99.90;;;;;;5093843;28;20377;-72
2020/12/13 02:20:08;;;;;;;;;;;2.80;99.90;;;;;;5072120;28;19991;-72
2020/12/13 02:22:37;;;;;;;;;;;2.90;99.90;;;;;;5072519;28;19931;-72
2020/12/13 02:25:10;;;;;;;;;;;2.80;99.90;;;;;;5111269;28;20472;-71
2020/12/13 02:27:36;;;;;;;;;;;2.80;99.90;;;;;;5112490;28;19978;-71
2020/12/13 02:30:02;;;;;;;;;;;2.80;99.90;;;;;;5112702;28;19968;-71
2020/12/13 02:32:28;;;;;;;;;;;2.80;99.90;;;;;;5113088;28;19935;-72
2020/12/13 02:34:54;;;;;;;;;;;2.90;99.90;;;;;;5112911;28;19924;-72
2020/12/13 02:37:21;;;;;;;;;;;2.80;99.90;;;;;;5112719;28;20380;-71
2020/12/13 02:39:47;;;;;;;;;;;2.80;99.90;;;;;;5113006;28;19969;-71
2020/12/13 02:42:13;;;;;;;;;;;2.80;99.90;;;;;;5112451;28;19974;-71
2020/12/13 02:44:39;;;;;;;;;;;2.80;99.90;;;;;;5113132;28;19931;-71
2020/12/13 02:47:05;;;;;;;;;;;2.80;99.90;;;;;;5112669;28;19931;-71
2020/12/13 02:49:31;;;;;;;;;;;2.80;99.90;;;;;;5112685;28;20284;-71
2020/12/13 02:52:00;;;;;;;;;;;2.80;99.90;;;;;;5112641;28;19923;-71
2020/12/13 02:54:26;;;;;;;;;;;2.80;99.90;;;;;;5111145;28;19928;-71
2020/12/13 02:56:53;;;;;;;;;;;2.80;99.90;;;;;;5112789;27;19930;-72
2020/12/13 02:59:18;;;;;;;;;;;2.80;99.90;;;;;;5112839;28;19949;-72
2020/12/13 03:01:44;;;;;;;;;;;2.80;99.90;;;;;;5112549;28;20010;-72
2020/12/13 03:04:11;;;;;;;;;;;2.90;99.90;;;;;;5112821;28;19924;-72
2020/12/13 03:06:37;;;;;;;;;;;2.80;99.90;;;;;;5112588;28;19924;-72
2020/12/13 03:09:03;;;;;;;;;;;2.70;99.90;;;;;;5112789;28;19930;-71
2020/12/13 03:11:29;;;;;;;;;;;2.70;99.90;;;;;;5112484;28;19924;-71
2020/12/13 03:13:56;;;;;;;;;;;2.70;99.90;;;;;;5112545;28;19928;-71
2020/12/13 03:16:22;;;;;;;;;;;2.70;99.90;;;;;;5112747;28;20047;-71
2020/12/13 03:18:48;;;;;;;;;;;2.80;99.90;;;;;;5112632;28;19924;-71
2020/12/13 03:21:14;;;;;;;;;;;2.80;99.90;;;;;;5112408;28;20296;-71
2020/12/13 03:23:40;;;;;;;;;;;2.80;99.90;;;;;;5114968;28;19924;-71
2020/12/13 03:26:06;;;;;;;;;;;2.80;99.90;;;;;;5116689;28;20299;-71
2020/12/13 03:28:32;;;;;;;;;;;2.80;99.90;;;;;;5116684;28;19946;-71
2020/12/13 03:30:59;;;;;;;;;;;2.80;99.90;;;;;;5116407;28;19963;-71
2020/12/13 03:33:25;;;;;;;;;;;2.80;99.90;;;;;;5116339;28;19924;-71
2020/12/13 03:35:51;;;;;;;;;;;2.80;99.90;;;;;;5116496;28;19928;-71
2020/12/13 03:38:17;;;;;;;;;;;2.80;99.90;;;;;;5097514;27;19924;-71
2020/12/13 03:40:43;;;;;;;;;;;2.80;99.90;;;;;;5096198;28;19931;-71
2020/12/13 03:43:09;;;;;;;;;;;2.80;99.90;;;;;;5095962;28;20399;-71
2020/12/13 03:45:35;;;;;;;;;;;2.80;99.90;;;;;;5095864;28;20409;-71
2020/12/13 03:48:02;;;;;;;;;;;2.80;99.90;;;;;;5095901;28;19935;-72
2020/12/13 03:50:38;;;;;;;;;;;2.80;99.90;;;;;;5102378;28;19969;-71
2020/12/13 03:53:04;;;;;;;;;;;2.90;99.90;;;;;;5115827;28;19931;-71
2020/12/13 03:55:30;;;;;;;;;;;2.90;99.90;;;;;;5116342;28;19924;-71
2020/12/13 03:57:56;;;;;;;;;;;2.80;99.90;;;;;;5116586;28;20019;-72
2020/12/13 04:00:22;;;;;;;;;;;2.80;99.90;;;;;;5116203;28;20018;-72
2020/12/13 04:02:48;;;;;;;;;;;2.90;99.90;;;;;;5116075;28;19930;-72
2020/12/13 04:05:15;;;;;;;;;;;2.90;99.90;;;;;;5101203;28;19931;-72
2020/12/13 04:07:41;;;;;;;;;;;2.90;99.90;;;;;;5075474;28;19955;-72
2020/12/13 04:10:07;;;;;;;;;;;2.90;99.90;;;;;;5075408;28;19928;-71
2020/12/13 04:12:33;;;;;;;;;;;2.80;99.90;;;;;;5075246;28;19970;-72
2020/12/13 04:14:59;;;;;;;;;;;2.80;99.90;;;;;;5075347;28;20296;-71
2020/12/13 04:17:24;;;;;;;;;;;2.80;99.90;;;;;;5075393;28;19924;-72
2020/12/13 04:19:50;;;;;;;;;;;2.80;99.90;;;;;;5106535;28;19934;-72
2020/12/13 04:22:17;;;;;;;;;;;2.80;99.90;;;;;;5115553;28;19923;-72
2020/12/13 04:24:43;;;;;;;;;;;2.80;99.90;;;;;;5115890;28;19924;-72
2020/12/13 04:27:09;;;;;;;;;;;2.80;99.90;;;;;;5115276;28;19930;-71
2020/12/13 04:29:35;;;;;;;;;;;2.80;99.90;;;;;;5115779;28;19924;-71
2020/12/13 04:32:01;;;;;;;;;;;2.80;99.90;;;;;;5106556;28;20292;-72
2020/12/13 04:34:27;;;;;;;;;;;2.90;99.90;;;;;;5093854;28;19950;-72
2020/12/13 04:36:53;;;;;;;;;;;2.80;99.90;;;;;;5095031;28;19924;-72
2020/12/13 04:39:20;;;;;;;;;;;2.80;99.90;;;;;;5095204;28;19969;-73
2020/12/13 04:41:46;;;;;;;;;;;2.80;99.90;;;;;;5094526;28;20461;-72
2020/12/13 04:44:12;;;;;;;;;;;2.80;99.90;;;;;;5094878;28;19924;-71
2020/12/13 04:46:39;;;;;;;;;;;2.80;99.90;;;;;;5101463;28;20319;-72
2020/12/13 04:49:05;;;;;;;;;;;2.80;99.90;;;;;;5115004;28;19928;-72
2020/12/13 04:51:33;;;;;;;;;;;2.80;99.90;;;;;;5115289;27;19978;-72
2020/12/13 04:54:02;;;;;;;;;;;2.80;99.90;;;;;;5114803;28;20531;-72
2020/12/13 04:56:31;;;;;;;;;;;2.80;99.90;;;;;;5114883;28;20330;-72
2020/12/13 04:58:58;;;;;;;;;;;2.90;99.90;;;;;;5115023;28;19924;-72
2020/12/13 05:01:24;;;;;;;;;;;2.80;99.90;;;;;;5114497;28;19976;-72
2020/12/13 05:03:50;;;;;;;;;;;2.90;99.90;;;;;;5110669;28;19925;-72
2020/12/13 05:06:16;;;;;;;;;;;2.90;99.90;;;;;;5094316;28;19934;-72
2020/12/13 05:08:42;;;;;;;;;;;2.90;99.90;;;;;;5094507;28;19924;-72
2020/12/13 05:11:08;;;;;;;;;;;2.80;99.90;;;;;;5094371;28;20381;-72
2020/12/13 05:13:38;;;;;;;;;;;2.80;99.90;;;;;;5094013;28;19924;-72
2020/12/13 05:16:05;;;;;;;;;;;2.80;99.90;;;;;;5094279;28;19924;-72
2020/12/13 05:18:31;;;;;;;;;;;2.80;99.90;;;;;;5094185;28;20005;-72
2020/12/13 05:20:57;;;;;;;;;;;2.80;99.90;;;;;;5094228;28;19924;-71
2020/12/13 05:23:23;;;;;;;;;;;2.80;99.90;;;;;;5114202;28;19973;-71
2020/12/13 05:25:51;;;;;;;;;;;2.80;99.90;;;;;;5114605;28;20311;-71
2020/12/13 05:28:20;;;;;;;;;;;2.80;99.90;;;;;;5114292;28;19977;-71
2020/12/13 05:30:49;;;;;;;;;;;2.80;99.90;;;;;;5114248;28;19980;-71
2020/12/13 05:33:21;;;;;;;;;;;2.80;99.90;;;;;;5100299;28;20454;-71
2020/12/13 05:35:47;;;;;;;;;;;2.90;99.90;;;;;;5093793;28;19924;-71
2020/12/13 05:38:14;;;;;;;;;;;2.90;99.90;;;;;;5093870;28;19924;-71
2020/12/13 05:40:41;;;;;;;;;;;2.90;99.90;;;;;;5093718;28;19985;-71
2020/12/13 05:43:10;;;;;;;;;;;2.90;99.90;;;;;;5093685;28;19962;-71
2020/12/13 05:54:00;;;;;;;;;;;2.90;99.90;;;;;;5113380;28;20381;-72
2020/12/13 05:56:27;;;;;;;;;;;2.90;99.90;;;;;;5113960;28;19930;-72
2020/12/13 05:58:55;;;;;;;;;;;2.90;99.90;;;;;;5095266;28;19924;-72
2020/12/13 06:01:22;;;;;;;;;;;2.90;99.90;;;;;;5093335;28;19924;-72
2020/12/13 06:03:50;;;;;;;;;;;2.90;99.90;;;;;;5093143;28;19924;-72
2020/12/13 06:06:20;;;;;;;;;;;2.90;99.90;;;;;;5095556;28;19931;-72
2020/12/13 06:08:53;;;;;;;;;;;2.90;99.90;;;;;;5113803;28;19967;-72
2020/12/13 06:11:20;;;;;;;;;;;2.90;99.90;;;;;;5113406;28;19971;-72
2020/12/13 06:13:51;;;;;;;;;;;2.90;99.90;;;;;;5113232;28;19974;-72
2020/12/13 06:16:17;;;;;;;;;;;2.90;99.90;;;;;;5112079;28;19924;-72
2020/12/13 06:18:44;;;;;;;;;;;2.90;99.90;;;;;;5113304;28;20369;-72
2020/12/13 06:21:12;;;;;;;;;;;2.90;99.90;;;;;;5113507;28;19967;-72
2020/12/13 06:23:38;;;;;;;;;;;2.90;99.90;;;;;;5113196;28;19924;-72
2020/12/13 06:26:05;;;;;;;;;;;3.00;99.90;;;;;;5113090;28;19971;-72
2020/12/13 06:28:31;;;;;;;;;;;3.00;99.90;;;;;;5113198;28;20303;-72
2020/12/13 06:31:01;;;;;;;;;;;3.00;99.90;;;;;;5113057;28;19969;-72
2020/12/13 06:33:27;;;;;;;;;;;3.00;99.90;;;;;;5112788;28;19927;-72
2020/12/13 06:35:53;;;;;;;;;;;3.00;99.90;;;;;;5113306;28;19932;-72
2020/12/13 06:38:20;;;;;;;;;;;3.00;99.90;;;;;;5113393;28;19924;-72
2020/12/13 06:40:46;;;;;;;;;;;3.00;99.90;;;;;;5111376;28;19927;-72
2020/12/13 06:43:12;;;;;;;;;;;3.00;99.90;;;;;;5112525;28;20330;-71
2020/12/13 06:45:38;;;;;;;;;;;3.00;99.90;;;;;;5112602;28;19930;-71
2020/12/13 06:48:04;;;;;;;;;;;3.00;99.90;;;;;;5112750;28;19928;-72
2020/12/13 06:50:30;;;;;;;;;;;3.00;99.90;;;;;;5113023;28;19930;-72
2020/12/13 06:52:56;;;;;;;;;;;2.90;99.90;;;;;;5110685;28;20349;-72
2020/12/13 06:55:31;;;;;;;;;;;3.00;99.90;;;;;;5092586;28;19953;-72
2020/12/13 06:57:58;;;;;;;;;;;3.00;99.90;;;;;;5091918;28;19924;-72
2020/12/13 07:00:24;;;;;;;;;;;3.00;99.90;;;;;;5092266;28;20351;-72
2020/12/13 07:02:54;;;;;;;;;;;3.00;99.90;;;;;;5092447;28;19924;-72
2020/12/13 07:05:20;;;;;;;;;;;3.00;99.90;;;;;;5092606;28;20018;-72
2020/12/13 07:07:49;;;;;;;;;;;3.00;99.90;;;;;;5092461;28;19931;-72
2020/12/13 07:10:15;;;;;;;;;;;3.00;99.90;;;;;;5101796;28;20023;-72
2020/12/13 07:12:47;;;;;;;;;;;3.00;99.90;;;;;;5112548;28;19924;-72
2020/12/13 07:15:19;;;;;;;;;;;3.00;99.90;;;;;;5112895;28;19981;-72
2020/12/13 07:17:46;;;;;;;;;;;3.00;99.90;;;;;;5112786;28;19931;-72
2020/12/13 07:20:12;;;;;;;;;;;3.00;99.90;;;;;;5112590;28;19924;-72
2020/12/13 07:22:38;;;;;;;;;;;3.00;99.90;;;;;;5112325;28;19931;-72
2020/12/13 07:25:04;;;;;;;;;;;3.00;99.90;;;;;;5091491;28;20455;-72
2020/12/13 07:27:31;;;;;;;;;;;3.00;99.90;;;;;;5071817;28;19983;-72
2020/12/13 07:29:58;;;;;;;;;;;3.00;99.90;;;;;;5072071;28;19999;-72
2020/12/13 07:32:24;;;;;;;;;;;3.00;99.90;;;;;;5071848;28;19932;-72
2020/12/13 07:34:50;;;;;;;;;;;3.10;99.90;;;;;;5071975;28;19929;-72
2020/12/13 07:37:17;;;;;;;;;;;3.00;99.90;;;;;;5072058;28;20301;-72
2020/12/13 07:39:43;;;;;;;;;;;3.10;99.90;;;;;;5110485;28;19971;-72
2020/12/13 07:42:09;;;;;;;;;;;3.10;99.90;;;;;;5111749;28;19924;-72
2020/12/13 07:44:35;;;;;;;;;;;3.10;99.90;;;;;;5112508;28;19931;-72
2020/12/13 07:47:02;;;;;;;;;;;3.20;99.90;;;;;;5103851;28;19924;-72
2020/12/13 07:49:28;;;;;;;;;;;3.20;99.90;;;;;;5092079;28;19924;-72
2020/12/13 07:51:56;;;;;;;;;;;3.20;99.90;;;;;;5091727;28;20392;-72
2020/12/13 07:54:23;;;;;;;;;;;3.30;99.90;;;;;;5091913;28;19946;-72
2020/12/13 07:56:49;;;;;;;;;;;3.30;99.90;;;;;;5091888;28;20342;-72
2020/12/13 07:59:16;;;;;;;;;;;3.40;99.90;;;;;;5092165;28;19986;-72
2020/12/13 08:01:42;;;;;;;;;;;3.40;99.90;;;;;;5091726;28;19924;-72
2020/12/13 08:04:10;;;;;;;;;;;3.50;99.90;;;;;;5091919;28;19977;-72
2020/12/13 08:06:36;;;;;;;;;;;3.50;99.90;;;;;;5091702;28;19931;-72
2020/12/13 08:09:12;;;;;;;;;;;3.50;99.90;;;;;;5094278;28;20370;-72
2020/12/13 08:11:38;;;;;;;;;;;3.60;99.90;;;;;;5095520;28;19924;-72
2020/12/13 08:14:05;;;;;;;;;;;3.60;99.90;;;;;;5094933;28;19924;-72
2020/12/13 08:16:32;;;;;;;;;;;3.60;99.90;;;;;;5111563;28;19923;-72
2020/12/13 08:19:00;;;;;;;;;;;3.80;99.90;;;;;;5115654;28;19928;-72
2020/12/13 08:21:32;;;;;;;;;;;3.80;99.90;;;;;;5115523;28;20004;-72
2020/12/13 08:24:01;;;;;;;;;;;3.80;99.90;;;;;;5115624;28;19930;-72
2020/12/13 08:26:28;;;;;;;;;;;3.80;99.90;;;;;;5114203;28;19924;-72
2020/12/13 08:28:56;;;;;;;;;;;3.80;99.90;;;;;;5115596;28;19967;-73
2020/12/13 08:31:25;;;;;;;;;;;3.70;99.90;;;;;;5115648;28;19924;-73
2020/12/13 08:33:58;;;;;;;;;;;3.70;99.90;;;;;;5115360;28;19935;-71
2020/12/13 08:36:24;;;;;;;;;;;3.80;99.90;;;;;;5110506;28;20023;-71
2020/12/13 08:39:01;;;;;;;;;;;3.80;99.90;;;;;;5095043;28;19935;-72
2020/12/13 08:41:27;;;;;;;;;;;3.80;99.90;;;;;;5094836;28;19924;-72
2020/12/13 08:43:53;;;;;;;;;;;3.80;99.90;;;;;;5094544;28;19924;-72
2020/12/13 08:46:29;;;;;;;;;;;3.80;99.90;;;;;;5094831;28;20369;-72
2020/12/13 08:48:55;;;;;;;;;;;3.80;99.90;;;;;;5109159;28;19931;-72
2020/12/13 08:51:24;;;;;;;;;;;3.70;99.90;;;;;;5115252;28;19953;-72
2020/12/13 08:53:55;;;;;;;;;;;3.80;99.90;;;;;;5114823;28;19969;-73
2020/12/13 08:56:29;;;;;;;;;;;3.80;99.90;;;;;;5114804;28;20005;-72
2020/12/13 08:58:57;;;;;;;;;;;3.80;99.90;;;;;;5114870;28;19985;-72
2020/12/13 09:01:26;;;;;;;;;;;3.80;99.90;;;;;;5114283;28;19931;-72
2020/12/13 09:03:52;;;;;;;;;;;3.80;99.90;;;;;;5114323;28;19924;-73
2020/12/13 09:06:24;;;;;;;;;;;3.80;99.90;;;;;;5114546;28;19950;-72
2020/12/13 09:08:50;;;;;;;;;;;3.90;99.90;;;;;;5114488;28;19924;-71
2020/12/13 09:11:29;;;;;;;;;;;3.90;99.90;;;;;;5114768;28;19934;-72
2020/12/13 09:13:55;;;;;;;;;;;3.90;99.90;;;;;;5113983;28;19928;-72
2020/12/13 09:16:27;;;;;;;;;;;4.00;99.90;;;;;;5094338;28;19931;-73
2020/12/13 09:19:01;;;;;;;;;;;4.00;99.90;;;;;;5093995;28;19924;-72
2020/12/13 09:21:39;;;;;;;;;;;4.10;99.90;;;;;;5093366;28;19928;-72
2020/12/13 09:24:05;;;;;;;;;;;4.10;99.90;;;;;;5093883;28;19989;-73
2020/12/13 09:26:32;;;;;;;;;;;4.10;99.90;;;;;;5095242;28;19928;-68
2020/12/13 09:28:58;;;;;;;;;;;4.10;99.90;;;;;;5093640;28;19968;-69
2020/12/13 09:31:24;;;;;;;;;;;4.20;99.90;;;;;;5093866;28;20396;-69
2020/12/13 09:33:50;;;;;;;;;;;4.20;99.90;;;;;;5093577;28;19973;-69
2020/12/13 09:36:16;;;;;;;;;;;4.30;99.90;;;;;;5093845;28;19928;-69
2020/12/13 09:38:42;;;;;;;;;;;4.40;99.90;;;;;;5093788;28;19924;-70
2020/12/13 09:41:08;;;;;;;;;;;4.40;99.90;;;;;;5097638;28;19924;-68
2020/12/13 09:43:35;;;;;;;;;;;4.50;99.90;;;;;;5113495;28;20412;-71
2020/12/13 09:46:01;;;;;;;;;;;4.60;99.90;;;;;;5113989;28;19924;-70
2020/12/13 09:48:27;;;;;;;;;;;4.70;99.90;;;;;;5094659;28;19925;-72
2020/12/13 09:50:53;;;;;;;;;;;4.70;99.90;;;;;;5093453;28;19924;-71
2020/12/13 09:53:19;;;;;;;;;;;4.70;99.90;;;;;;5093015;28;19924;-72
2020/12/13 09:55:45;;;;;;;;;;;4.70;99.90;;;;;;5095144;28;19924;-68
2020/12/13 09:58:11;;;;;;;;;;;4.90;99.90;;;;;;5095392;28;19931;-69
2020/12/13 10:00:38;;;;;;;;;;;4.90;99.90;;;;;;5093313;28;19924;-69
2020/12/13 10:03:04;;;;;;;;;;;5.00;99.90;;;;;;5092986;28;19928;-71
2020/12/13 10:05:37;;;;;;;;;;;5.00;99.90;;;;;;5093295;28;19931;-72
2020/12/13 10:10:48;;;;;;;;;;;5.10;99.90;;;;;;5093120;28;19927;-74
2020/12/13 10:13:14;;;;;;;;;;;5.10;99.90;;;;;;5092932;28;19924;-71
2020/12/13 10:15:41;;;;;;;;;;;5.10;99.90;;;;;;5093043;28;20288;-70
2020/12/13 10:18:07;;;;;;;;;;;5.10;99.90;;;;;;5094174;28;19928;-72
2020/12/13 10:20:33;;;;;;;;;;;5.10;99.90;;;;;;5093097;28;19924;-69
2020/12/13 10:22:59;;;;;;;;;;;5.20;99.90;;;;;;5098112;28;19931;-72
2020/12/13 10:25:25;;;;;;;;;;;5.20;99.90;;;;;;5113352;28;19924;-72
2020/12/13 10:27:51;;;;;;;;;;;5.30;99.90;;;;;;5113228;28;19928;-73
2020/12/13 10:30:17;;;;;;;;;;;5.30;99.90;;;;;;5113117;28;19931;-72
2020/12/13 10:32:44;;;;;;;;;;;5.40;99.90;;;;;;5112200;28;19925;-75
2020/12/13 10:35:10;;;;;;;;;;;5.50;99.90;;;;;;5113001;28;19932;-73
2020/12/13 10:37:36;;;;;;;;;;;5.50;99.90;;;;;;5093009;28;19931;-72
2020/12/13 10:40:01;;;;;;;;;;;5.60;99.90;;;;;;5082985;28;19932;-71
2020/12/13 10:42:27;;;;;;;;;;;5.50;99.90;;;;;;5072253;28;20266;-70
2020/12/13 10:44:54;;;;;;;;;;;5.60;99.90;;;;;;5072141;28;19924;-70
2020/12/13 10:47:21;;;;;;;;;;;5.60;99.90;;;;;;5072278;28;20296;-71
2020/12/13 10:49:47;;;;;;;;;;;5.70;99.90;;;;;;5072227;28;19928;-69
2020/12/13 10:52:13;;;;;;;;;;;5.70;99.90;;;;;;5072370;28;19924;-71
2020/12/13 10:54:39;;;;;;;;;;;5.70;99.90;;;;;;5072382;28;19924;-70
2020/12/13 10:57:07;;;;;;;;;;;5.70;99.90;;;;;;5072407;28;20404;-70
2020/12/13 10:59:33;;;;;;;;;;;5.80;99.90;;;;;;5072287;28;19931;-71
2020/12/13 11:01:59;;;;;;;;;;;5.70;99.90;;;;;;5071742;28;19924;-70
2020/12/13 11:04:25;;;;;;;;;;;5.70;99.90;;;;;;5072502;28;19935;-70
2020/12/13 11:06:52;;;;;;;;;;;5.60;99.90;;;;;;5072283;28;19929;-70
2020/12/13 11:09:18;;;;;;;;;;;5.60;99.90;;;;;;5072257;28;19924;-71
2020/12/13 11:11:44;;;;;;;;;;;5.60;99.90;;;;;;5071798;28;19924;-69
2020/12/13 11:14:10;;;;;;;;;;;5.60;99.90;;;;;;5071903;28;19924;-70
2020/12/13 11:16:36;;;;;;;;;;;5.60;99.90;;;;;;5072099;28;19939;-70
2020/12/13 11:19:02;;;;;;;;;;;5.60;99.90;;;;;;5072200;28;19928;-70
2020/12/13 11:21:28;;;;;;;;;;;5.50;99.90;;;;;;5071981;28;20381;-70
2020/12/13 11:23:55;;;;;;;;;;;5.50;99.90;;;;;;5071701;28;19930;-71
2020/12/13 11:26:20;;;;;;;;;;;5.30;99.90;;;;;;5072154;28;19932;-69
2020/12/13 11:28:46;;;;;;;;;;;5.40;99.90;;;;;;5071894;28;19935;-70
2020/12/13 11:31:14;;;;;;;;;;;5.40;99.90;;;;;;5071736;28;19925;-70
2020/12/13 11:33:40;;;;;;;;;;;5.40;99.90;;;;;;5071940;28;19924;-69
2020/12/13 11:36:06;;;;;;;;;;;5.30;99.90;;;;;;5072134;28;20411;-71
2020/12/13 11:38:32;;;;;;;;;;;5.40;99.90;;;;;;5072015;28;20300;-69
2020/12/13 11:40:59;;;;;;;;;;;5.40;99.90;;;;;;5071465;28;19970;-70
2020/12/13 11:43:25;;;;;;;;;;;5.40;99.90;;;;;;5072848;28;20446;-70
2020/12/13 11:45:51;;;;;;;;;;;5.50;99.90;;;;;;5075464;28;19935;-69
2020/12/13 11:48:17;;;;;;;;;;;5.60;99.90;;;;;;5075786;28;20350;-70
2020/12/13 11:50:50;;;;;;;;;;;5.60;99.90;;;;;;5075825;28;20079;-69
2020/12/13 11:53:16;;;;;;;;;;;5.70;99.90;;;;;;5075353;28;20472;-70
2020/12/13 11:55:42;;;;;;;;;;;5.80;99.90;;;;;;5075343;28;19925;-72
2020/12/13 11:58:08;;;;;;;;;;;5.90;99.90;;;;;;5075450;28;20292;-72
2020/12/13 12:00:34;;;;;;;;;;;5.80;99.90;;;;;;5075129;28;19964;-73
2020/12/13 12:03:01;;;;;;;;;;;5.90;99.90;;;;;;5075193;28;19925;-72
2020/12/13 12:05:26;;;;;;;;;;;5.90;99.90;;;;;;5075291;28;19971;-74
2020/12/13 12:07:54;;;;;;;;;;;6.10;99.90;;;;;;5075185;28;19935;-72
2020/12/13 12:10:20;;;;;;;;;;;6.30;99.90;;;;;;5075222;28;19925;-71
2020/12/13 12:12:47;;;;;;;;;;;6.40;99.90;;;;;;5075000;28;20450;-71
2020/12/13 12:15:14;;;;;;;;;;;6.40;99.90;;;;;;5075165;28;20381;-72
2020/12/13 12:17:40;;;;;;;;;;;6.30;99.90;;;;;;5075340;28;19925;-71
2020/12/13 12:20:06;;;;;;;;;;;6.40;99.90;;;;;;5075177;28;20406;-71
2020/12/13 12:22:32;;;;;;;;;;;6.40;99.90;;;;;;5075002;28;20323;-72
2020/12/13 12:24:58;;;;;;;;;;;6.50;99.90;;;;;;5074950;28;19924;-71
2020/12/13 12:27:24;;;;;;;;;;;6.50;99.90;;;;;;5074872;28;19925;-72
2020/12/13 12:29:50;;;;;;;;;;;6.50;99.90;;;;;;5074776;28;19935;-72
2020/12/13 12:32:17;;;;;;;;;;;6.50;99.90;;;;;;5074412;28;19928;-72
2020/12/13 12:34:43;;;;;;;;;;;6.50;99.90;;;;;;5074938;28;19924;-72
2020/12/13 12:37:09;;;;;;;;;;;6.50;99.90;;;;;;5074814;28;20308;-72
2020/12/13 12:39:35;;;;;;;;;;;6.50;99.90;;;;;;5074817;28;20015;-73
2020/12/13 12:42:01;;;;;;;;;;;6.50;99.90;;;;;;5074387;28;20274;-72
2020/12/13 12:44:27;;;;;;;;;;;6.40;99.90;;;;;;5074592;28;20289;-73
2020/12/13 12:46:53;;;;;;;;;;;6.30;99.90;;;;;;5074611;28;19925;-73
2020/12/13 12:49:19;;;;;;;;;;;6.20;99.90;;;;;;5074480;28;19924;-73
2020/12/13 12:51:45;;;;;;;;;;;6.10;99.90;;;;;;5074030;28;20397;-72
2020/12/13 12:54:11;;;;;;;;;;;5.90;99.90;;;;;;5073874;28;19924;-72
2020/12/13 12:56:41;;;;;;;;;;;5.90;99.90;;;;;;5073932;28;19930;-73
2020/12/13 12:59:10;;;;;;;;;;;5.80;99.90;;;;;;5074503;28;19978;-72
2020/12/13 13:01:38;;;;;;;;;;;5.80;99.90;;;;;;5074206;28;19985;-72
2020/12/13 13:04:06;;;;;;;;;;;5.70;99.90;;;;;;5074015;28;19924;-72
2020/12/13 13:06:42;;;;;;;;;;;5.60;99.90;;;;;;5074021;28;19924;-72
2020/12/13 13:09:16;;;;;;;;;;;5.60;99.90;;;;;;5074031;28;19925;-72
2020/12/13 13:11:42;;;;;;;;;;;5.60;99.90;;;;;;5073923;28;19928;-73
2020/12/13 13:14:10;;;;;;;;;;;5.60;99.90;;;;;;5074064;28;20296;-73
2020/12/13 13:16:37;;;;;;;;;;;5.70;99.90;;;;;;5074162;28;19928;-72
2020/12/13 13:19:06;;;;;;;;;;;5.70;99.90;;;;;;5073983;28;19925;-73
2020/12/13 13:21:36;;;;;;;;;;;5.70;99.90;;;;;;5073417;28;19931;-72
2020/12/13 13:24:03;;;;;;;;;;;5.60;99.90;;;;;;5073148;28;19968;-72
2020/12/13 13:26:29;;;;;;;;;;;5.60;99.90;;;;;;5073485;28;20365;-72
2020/12/13 13:28:55;;;;;;;;;;;5.50;99.90;;;;;;5073269;28;19924;-72
2020/12/13 13:31:22;;;;;;;;;;;5.40;99.90;;;;;;5073619;28;19928;-73
2020/12/13 13:33:49;;;;;;;;;;;5.40;99.90;;;;;;5073059;28;20364;-72
2020/12/13 13:36:15;;;;;;;;;;;5.30;99.90;;;;;;5073034;28;19925;-71
2020/12/13 13:38:41;;;;;;;;;;;5.20;99.90;;;;;;5073652;28;20273;-73
2020/12/13 13:41:11;;;;;;;;;;;5.20;99.90;;;;;;5073514;28;19975;-71
2020/12/13 13:43:40;;;;;;;;;;;5.20;99.90;;;;;;5072964;28;19976;-72
2020/12/13 13:51:35;;;;;;;;;;;5.00;99.90;;;;;;5073194;28;19928;-71
2020/12/13 13:54:04;;;;;;;;;;;5.00;99.90;;;;;;5073099;28;20019;-72
2020/12/13 13:56:38;;;;;;;;;;;4.90;99.90;;;;;;5073252;28;19925;-71
2020/12/13 13:59:04;;;;;;;;;;;4.90;99.90;;;;;;5073032;28;20403;-71
2020/12/13 14:01:33;;;;;;;;;;;4.90;99.90;;;;;;5072805;28;19925;-72
2020/12/13 14:04:01;;;;;;;;;;;4.80;99.90;;;;;;5073089;28;19925;-71
2020/12/13 14:06:40;;;;;;;;;;;4.80;99.90;;;;;;5073096;28;19991;-71
2020/12/13 14:09:06;;;;;;;;;;;4.70;99.90;;;;;;5073015;28;19928;-71
2020/12/13 14:11:32;;;;;;;;;;;4.60;99.90;;;;;;5072968;28;19973;-71
2020/12/13 14:13:58;;;;;;;;;;;4.50;99.90;;;;;;5072934;28;19968;-74
2020/12/13 14:16:24;;;;;;;;;;;4.50;99.90;;;;;;5073045;28;20353;-71
2020/12/13 14:18:50;;;;;;;;;;;4.40;99.90;;;;;;5073054;28;20297;-71
2020/12/13 14:21:16;;;;;;;;;;;4.40;99.90;;;;;;5072720;28;19947;-71
2020/12/13 14:23:42;;;;;;;;;;;4.40;99.90;;;;;;5072445;28;20400;-72
2020/12/13 14:26:09;;;;;;;;;;;4.40;99.90;;;;;;5072569;28;19928;-72
2020/12/13 14:28:35;;;;;;;;;;;4.30;99.90;;;;;;5072865;28;19932;-72
2020/12/13 14:31:01;;;;;;;;;;;4.30;99.90;;;;;;5072568;28;20335;-72
2020/12/13 14:33:27;;;;;;;;;;;4.30;99.90;;;;;;5072237;28;19947;-72
2020/12/13 14:35:53;;;;;;;;;;;4.20;99.90;;;;;;5072506;28;19947;-72
2020/12/13 14:38:19;;;;;;;;;;;4.30;99.90;;;;;;5072476;28;19924;-72
2020/12/13 14:40:45;;;;;;;;;;;4.20;99.90;;;;;;5072435;28;19931;-72
2020/12/13 14:43:11;;;;;;;;;;;4.20;99.90;;;;;;5072286;28;19931;-72
2020/12/13 14:45:38;;;;;;;;;;;4.20;99.90;;;;;;5072457;28;19954;-72
2020/12/13 14:48:05;;;;;;;;;;;4.30;99.90;;;;;;5072521;28;19964;-72
2020/12/13 14:50:31;;;;;;;;;;;4.30;99.90;;;;;;5072282;28;20370;-72
2020/12/13 14:52:57;;;;;;;;;;;4.30;99.90;;;;;;5072273;28;19924;-72